FlightSource - Aviation Photo Database

World Wide Airport Lookup


Search by ICAO
Or
Search by City

FlightSource.ca - Aviation Photo Database - Tallahassee Regional Airport Information
Airport Identification
Name: Tallahassee Regional Airport
ICAO: KTLH
IATA: TLH
Airport Location
City: Tallahassee
Region: FL
Country: United States
Continent: North America
Latitude: 30.3965
Longitude: -84.3503
Airport Information
Type: Large Airport
Elevation: 81 Feet ASL
Flight Status: KTLH
More Info: KTLH
Airport Weather    
Metar: KTLH 260653Z AUTO 32003KT 10SM FEW003 24/24 A3007 RMK AO2 SLP183 T02390239
TAF:


Advertisement